sensor_id;sensor_type;location;lat;lon;timestamp;pressure;altitude;pressure_sealevel;temperature;humidity
73624;BME280;61921;53.226;-1.296;2023-05-14T00:02:17;101302.72;;;10.47;91.14
73624;BME280;61921;53.226;-1.296;2023-05-14T00:04:43;101301.05;;;10.45;91.06
73624;BME280;61921;53.226;-1.296;2023-05-14T00:07:08;101301.43;;;10.45;91.04
73624;BME280;61921;53.226;-1.296;2023-05-14T00:09:33;101300.51;;;10.40;91.50
73624;BME280;61921;53.226;-1.296;2023-05-14T00:11:58;101297.71;;;10.40;91.87
73624;BME280;61921;53.226;-1.296;2023-05-14T00:14:24;101295.94;;;10.38;92.09
73624;BME280;61921;53.226;-1.296;2023-05-14T00:16:49;101295.18;;;10.48;92.18
73624;BME280;61921;53.226;-1.296;2023-05-14T00:19:15;101293.62;;;10.57;92.07
73624;BME280;61921;53.226;-1.296;2023-05-14T00:21:41;101288.68;;;10.67;91.84
73624;BME280;61921;53.226;-1.296;2023-05-14T00:24:07;101279.09;;;10.73;91.49
73624;BME280;61921;53.226;-1.296;2023-05-14T00:26:32;101277.44;;;10.83;91.20
73624;BME280;61921;53.226;-1.296;2023-05-14T00:28:57;101272.46;;;10.88;91.23
73624;BME280;61921;53.226;-1.296;2023-05-14T00:31:23;101269.25;;;10.96;90.99
73624;BME280;61921;53.226;-1.296;2023-05-14T00:33:48;101263.58;;;11.06;90.73
73624;BME280;61921;53.226;-1.296;2023-05-14T00:36:14;101257.79;;;11.10;90.37
73624;BME280;61921;53.226;-1.296;2023-05-14T00:38:39;101249.54;;;11.13;90.21
73624;BME280;61921;53.226;-1.296;2023-05-14T00:41:05;101247.14;;;11.12;89.97
73624;BME280;61921;53.226;-1.296;2023-05-14T00:43:30;101244.02;;;11.11;90.00
73624;BME280;61921;53.226;-1.296;2023-05-14T00:45:55;101238.62;;;11.03;89.92
73624;BME280;61921;53.226;-1.296;2023-05-14T00:48:21;101235.10;;;10.97;89.42
73624;BME280;61921;53.226;-1.296;2023-05-14T00:50:46;101230.96;;;10.83;89.64
73624;BME280;61921;53.226;-1.296;2023-05-14T00:53:11;101226.66;;;10.78;90.14
73624;BME280;61921;53.226;-1.296;2023-05-14T00:55:37;101223.09;;;10.74;89.72
73624;BME280;61921;53.226;-1.296;2023-05-14T00:58:03;101218.63;;;10.68;89.70
73624;BME280;61921;53.226;-1.296;2023-05-14T01:00:27;101218.52;;;10.66;89.94
73624;BME280;61921;53.226;-1.296;2023-05-14T01:02:53;101212.62;;;10.57;90.98
73624;BME280;61921;53.226;-1.296;2023-05-14T01:05:19;101209.38;;;10.54;91.44
73624;BME280;61921;53.226;-1.296;2023-05-14T01:07:51;101205.84;;;10.52;91.58
73624;BME280;61921;53.226;-1.296;2023-05-14T01:10:14;101200.29;;;10.49;91.67
73624;BME280;61921;53.226;-1.296;2023-05-14T01:12:46;101200.12;;;10.46;91.35
73624;BME280;61921;53.226;-1.296;2023-05-14T01:15:07;101196.96;;;10.42;91.22
73624;BME280;61921;53.226;-1.296;2023-05-14T01:17:28;101197.11;;;10.32;91.19
73624;BME280;61921;53.226;-1.296;2023-05-14T01:19:53;101197.09;;;10.27;91.58
73624;BME280;61921;53.226;-1.296;2023-05-14T01:22:17;101196.54;;;10.27;91.80
73624;BME280;61921;53.226;-1.296;2023-05-14T01:24:43;101194.56;;;10.23;91.82
73624;BME280;61921;53.226;-1.296;2023-05-14T01:27:14;101190.51;;;10.20;92.37
73624;BME280;61921;53.226;-1.296;2023-05-14T01:29:37;101191.98;;;10.13;92.99
73624;BME280;61921;53.226;-1.296;2023-05-14T01:32:05;101190.80;;;10.11;92.96
73624;BME280;61921;53.226;-1.296;2023-05-14T01:34:27;101195.11;;;10.05;93.18
73624;BME280;61921;53.226;-1.296;2023-05-14T01:36:52;101197.40;;;10.03;93.37
73624;BME280;61921;53.226;-1.296;2023-05-14T01:39:18;101199.01;;;10.06;93.99
73624;BME280;61921;53.226;-1.296;2023-05-14T01:41:44;101198.67;;;10.10;94.84
73624;BME280;61921;53.226;-1.296;2023-05-14T01:44:09;101191.32;;;10.20;95.06
73624;BME280;61921;53.226;-1.296;2023-05-14T01:46:34;101189.88;;;10.31;95.08
73624;BME280;61921;53.226;-1.296;2023-05-14T01:49:00;101192.45;;;10.42;94.79
73624;BME280;61921;53.226;-1.296;2023-05-14T01:51:26;101189.79;;;10.56;94.39
73624;BME280;61921;53.226;-1.296;2023-05-14T01:53:51;101183.64;;;10.66;93.72
73624;BME280;61921;53.226;-1.296;2023-05-14T01:56:16;101183.81;;;10.75;93.23
73624;BME280;61921;53.226;-1.296;2023-05-14T01:58:41;101181.19;;;10.68;93.58
73624;BME280;61921;53.226;-1.296;2023-05-14T02:01:07;101173.62;;;10.74;93.01
73624;BME280;61921;53.226;-1.296;2023-05-14T02:03:32;101169.19;;;10.76;93.00
73624;BME280;61921;53.226;-1.296;2023-05-14T02:05:57;101165.37;;;10.77;93.01
73624;BME280;61921;53.226;-1.296;2023-05-14T02:08:23;101160.00;;;10.79;92.96
73624;BME280;61921;53.226;-1.296;2023-05-14T02:10:48;101157.70;;;10.93;92.58
73624;BME280;61921;53.226;-1.296;2023-05-14T02:13:14;101155.52;;;11.01;92.09
73624;BME280;61921;53.226;-1.296;2023-05-14T02:15:39;101152.81;;;10.88;92.75
73624;BME280;61921;53.226;-1.296;2023-05-14T02:18:05;101150.68;;;10.90;93.27
73624;BME280;61921;53.226;-1.296;2023-05-14T02:20:31;101149.57;;;10.96;93.18
73624;BME280;61921;53.226;-1.296;2023-05-14T02:22:56;101146.73;;;11.06;92.94
73624;BME280;61921;53.226;-1.296;2023-05-14T02:25:21;101143.87;;;11.12;92.38
73624;BME280;61921;53.226;-1.296;2023-05-14T02:27:46;101140.83;;;11.07;92.17
73624;BME280;61921;53.226;-1.296;2023-05-14T02:30:12;101139.15;;;11.12;92.26
73624;BME280;61921;53.226;-1.296;2023-05-14T02:32:38;101136.04;;;11.13;92.20
73624;BME280;61921;53.226;-1.296;2023-05-14T02:35:03;101134.23;;;11.21;91.85
73624;BME280;61921;53.226;-1.296;2023-05-14T02:37:29;101126.77;;;11.15;91.89
73624;BME280;61921;53.226;-1.296;2023-05-14T02:39:54;101119.98;;;11.09;91.98
73624;BME280;61921;53.226;-1.296;2023-05-14T02:42:20;101115.77;;;11.07;91.78
73624;BME280;61921;53.226;-1.296;2023-05-14T02:44:45;101111.06;;;11.09;91.67
73624;BME280;61921;53.226;-1.296;2023-05-14T02:47:10;101106.81;;;10.97;91.00
73624;BME280;61921;53.226;-1.296;2023-05-14T02:49:36;101108.84;;;10.86;90.97
73624;BME280;61921;53.226;-1.296;2023-05-14T02:52:01;101107.66;;;10.82;90.81
73624;BME280;61921;53.226;-1.296;2023-05-14T02:54:27;101109.98;;;10.72;90.59
73624;BME280;61921;53.226;-1.296;2023-05-14T02:56:52;101108.95;;;10.60;90.62
73624;BME280;61921;53.226;-1.296;2023-05-14T02:59:17;101105.20;;;10.52;91.04
73624;BME280;61921;53.226;-1.296;2023-05-14T03:01:43;101106.06;;;10.44;91.39
73624;BME280;61921;53.226;-1.296;2023-05-14T03:04:08;101105.75;;;10.34;91.65
73624;BME280;61921;53.226;-1.296;2023-05-14T03:06:33;101101.35;;;10.15;92.93
73624;BME280;61921;53.226;-1.296;2023-05-14T03:08:58;101095.80;;;10.12;93.41
73624;BME280;61921;53.226;-1.296;2023-05-14T03:11:23;101096.33;;;10.07;93.08
73624;BME280;61921;53.226;-1.296;2023-05-14T03:13:49;101097.03;;;10.01;92.95
73624;BME280;61921;53.226;-1.296;2023-05-14T03:16:15;101095.75;;;9.86;93.21
73624;BME280;61921;53.226;-1.296;2023-05-14T03:18:40;101093.12;;;9.78;93.72
73624;BME280;61921;53.226;-1.296;2023-05-14T03:21:06;101096.09;;;9.81;93.28
73624;BME280;61921;53.226;-1.296;2023-05-14T03:23:32;101096.01;;;9.76;93.56
73624;BME280;61921;53.226;-1.296;2023-05-14T03:25:57;101099.35;;;9.73;93.63
73624;BME280;61921;53.226;-1.296;2023-05-14T03:28:22;101102.39;;;9.71;93.48
73624;BME280;61921;53.226;-1.296;2023-05-14T03:30:48;101104.56;;;9.65;93.61
73624;BME280;61921;53.226;-1.296;2023-05-14T03:33:13;101100.57;;;9.64;94.29
73624;BME280;61921;53.226;-1.296;2023-05-14T03:35:38;101099.66;;;9.63;94.51
73624;BME280;61921;53.226;-1.296;2023-05-14T03:38:04;101093.63;;;9.70;94.80
73624;BME280;61921;53.226;-1.296;2023-05-14T03:40:29;101087.74;;;9.79;94.67
73624;BME280;61921;53.226;-1.296;2023-05-14T03:42:55;101084.96;;;9.88;94.60
73624;BME280;61921;53.226;-1.296;2023-05-14T03:45:21;101079.41;;;9.98;94.47
73624;BME280;61921;53.226;-1.296;2023-05-14T03:47:47;101076.22;;;10.06;94.23
73624;BME280;61921;53.226;-1.296;2023-05-14T03:50:12;101072.44;;;10.15;94.07
73624;BME280;61921;53.226;-1.296;2023-05-14T03:52:38;101073.75;;;10.18;93.75
73624;BME280;61921;53.226;-1.296;2023-05-14T03:55:04;101075.55;;;10.25;93.83
73624;BME280;61921;53.226;-1.296;2023-05-14T03:57:29;101073.13;;;10.37;93.58
73624;BME280;61921;53.226;-1.296;2023-05-14T03:59:55;101071.67;;;10.36;93.08
73624;BME280;61921;53.226;-1.296;2023-05-14T04:02:19;101068.90;;;10.44;92.71
73624;BME280;61921;53.226;-1.296;2023-05-14T04:04:45;101061.50;;;10.40;92.50
73624;BME280;61921;53.226;-1.296;2023-05-14T04:07:10;101053.93;;;10.34;92.69
73624;BME280;61921;53.226;-1.296;2023-05-14T04:09:36;101055.61;;;10.38;93.11
73624;BME280;61921;53.226;-1.296;2023-05-14T04:12:02;101054.22;;;10.39;93.04
73624;BME280;61921;53.226;-1.296;2023-05-14T04:14:27;101054.14;;;10.49;93.13
73624;BME280;61921;53.226;-1.296;2023-05-14T04:16:53;101049.66;;;10.56;92.88
73624;BME280;61921;53.226;-1.296;2023-05-14T04:19:18;101047.03;;;10.59;92.76
73624;BME280;61921;53.226;-1.296;2023-05-14T04:21:44;101048.49;;;10.40;93.01
73624;BME280;61921;53.226;-1.296;2023-05-14T04:24:09;101047.49;;;10.17;93.69
73624;BME280;61921;53.226;-1.296;2023-05-14T04:26:34;101048.32;;;10.04;94.04
73624;BME280;61921;53.226;-1.296;2023-05-14T04:29:00;101050.98;;;10.12;93.87
73624;BME280;61921;53.226;-1.296;2023-05-14T04:31:25;101053.06;;;10.21;93.84
73624;BME280;61921;53.226;-1.296;2023-05-14T04:33:50;101049.42;;;10.14;93.90
73624;BME280;61921;53.226;-1.296;2023-05-14T04:36:16;101042.61;;;10.04;94.50
73624;BME280;61921;53.226;-1.296;2023-05-14T04:38:41;101037.30;;;9.97;94.86
73624;BME280;61921;53.226;-1.296;2023-05-14T04:41:07;101035.68;;;9.96;95.16
73624;BME280;61921;53.226;-1.296;2023-05-14T04:43:32;101031.86;;;9.88;95.72
73624;BME280;61921;53.226;-1.296;2023-05-14T04:45:58;101031.37;;;9.91;95.94
73624;BME280;61921;53.226;-1.296;2023-05-14T04:48:23;101030.74;;;9.90;96.66
73624;BME280;61921;53.226;-1.296;2023-05-14T04:50:49;101029.91;;;9.93;97.08
73624;BME280;61921;53.226;-1.296;2023-05-14T04:53:14;101036.04;;;9.97;97.03
73624;BME280;61921;53.226;-1.296;2023-05-14T04:55:39;101036.88;;;9.93;97.33
73624;BME280;61921;53.226;-1.296;2023-05-14T04:58:04;101033.68;;;10.04;97.45
73624;BME280;61921;53.226;-1.296;2023-05-14T05:00:29;101033.51;;;10.16;96.78
73624;BME280;61921;53.226;-1.296;2023-05-14T05:02:55;101028.89;;;10.29;96.47
73624;BME280;61921;53.226;-1.296;2023-05-14T05:05:20;101025.85;;;10.30;96.37
73624;BME280;61921;53.226;-1.296;2023-05-14T05:07:46;101024.01;;;10.37;96.34
73624;BME280;61921;53.226;-1.296;2023-05-14T05:10:11;101023.66;;;10.35;96.58
73624;BME280;61921;53.226;-1.296;2023-05-14T05:12:36;101024.09;;;10.45;96.79
73624;BME280;61921;53.226;-1.296;2023-05-14T05:15:02;101020.11;;;10.46;96.81
73624;BME280;61921;53.226;-1.296;2023-05-14T05:17:28;101020.75;;;10.52;96.83
73624;BME280;61921;53.226;-1.296;2023-05-14T05:19:52;101020.74;;;10.27;98.04
73624;BME280;61921;53.226;-1.296;2023-05-14T05:22:18;101019.96;;;10.48;97.87
73624;BME280;61921;53.226;-1.296;2023-05-14T05:24:43;101019.39;;;10.66;97.75
73624;BME280;61921;53.226;-1.296;2023-05-14T05:27:08;101019.22;;;10.79;97.24
73624;BME280;61921;53.226;-1.296;2023-05-14T05:29:35;101020.59;;;10.85;96.86
73624;BME280;61921;53.226;-1.296;2023-05-14T05:31:59;101020.26;;;10.79;96.87
73624;BME280;61921;53.226;-1.296;2023-05-14T05:34:24;101019.69;;;10.59;97.51
73624;BME280;61921;53.226;-1.296;2023-05-14T05:36:50;101018.13;;;10.41;98.39
73624;BME280;61921;53.226;-1.296;2023-05-14T05:39:15;101017.95;;;10.55;98.47
73624;BME280;61921;53.226;-1.296;2023-05-14T05:41:41;101016.38;;;10.46;98.40
73624;BME280;61921;53.226;-1.296;2023-05-14T05:44:06;101012.23;;;10.50;98.53
73624;BME280;61921;53.226;-1.296;2023-05-14T05:46:37;101014.20;;;10.56;98.49
73624;BME280;61921;53.226;-1.296;2023-05-14T05:48:56;101013.53;;;10.65;98.60
73624;BME280;61921;53.226;-1.296;2023-05-14T05:51:22;101013.79;;;10.60;98.36
73624;BME280;61921;53.226;-1.296;2023-05-14T05:53:48;101013.46;;;10.76;98.28
73624;BME280;61921;53.226;-1.296;2023-05-14T05:56:13;101005.65;;;10.79;97.98
73624;BME280;61921;53.226;-1.296;2023-05-14T05:58:39;101005.21;;;10.92;97.34
73624;BME280;61921;53.226;-1.296;2023-05-14T06:01:04;101003.10;;;11.03;97.08
73624;BME280;61921;53.226;-1.296;2023-05-14T06:03:30;101010.78;;;11.04;96.59
73624;BME280;61921;53.226;-1.296;2023-05-14T06:05:55;101007.47;;;11.09;96.67
73624;BME280;61921;53.226;-1.296;2023-05-14T06:08:21;101007.54;;;11.16;96.58
73624;BME280;61921;53.226;-1.296;2023-05-14T06:10:46;101009.12;;;11.09;96.14
73624;BME280;61921;53.226;-1.296;2023-05-14T06:13:12;101012.54;;;11.04;95.96
73624;BME280;61921;53.226;-1.296;2023-05-14T06:15:37;101007.56;;;11.13;96.62
73624;BME280;61921;53.226;-1.296;2023-05-14T06:18:02;101004.91;;;11.32;96.33
73624;BME280;61921;53.226;-1.296;2023-05-14T06:20:27;101001.89;;;11.42;95.59
73624;BME280;61921;53.226;-1.296;2023-05-14T06:22:53;100997.65;;;11.37;95.04
73624;BME280;61921;53.226;-1.296;2023-05-14T06:25:18;100996.71;;;11.42;95.27
73624;BME280;61921;53.226;-1.296;2023-05-14T06:27:44;100992.77;;;11.57;94.98
73624;BME280;61921;53.226;-1.296;2023-05-14T06:30:10;100996.60;;;11.82;94.63
73624;BME280;61921;53.226;-1.296;2023-05-14T06:32:34;100998.79;;;11.78;94.06
73624;BME280;61921;53.226;-1.296;2023-05-14T06:34:59;100992.59;;;11.82;93.19
73624;BME280;61921;53.226;-1.296;2023-05-14T06:37:25;100991.98;;;11.71;94.35
73624;BME280;61921;53.226;-1.296;2023-05-14T06:39:50;100987.64;;;11.82;94.16
73624;BME280;61921;53.226;-1.296;2023-05-14T06:42:16;100985.72;;;11.88;93.63
73624;BME280;61921;53.226;-1.296;2023-05-14T06:44:41;100985.33;;;11.82;93.89
73624;BME280;61921;53.226;-1.296;2023-05-14T06:47:07;100984.93;;;11.78;93.93
73624;BME280;61921;53.226;-1.296;2023-05-14T06:49:32;100982.06;;;11.93;94.06
73624;BME280;61921;53.226;-1.296;2023-05-14T06:51:58;100978.44;;;11.97;93.68
73624;BME280;61921;53.226;-1.296;2023-05-14T06:54:23;100974.11;;;12.04;93.40
73624;BME280;61921;53.226;-1.296;2023-05-14T06:56:49;100976.14;;;12.15;93.18
73624;BME280;61921;53.226;-1.296;2023-05-14T06:59:15;100970.54;;;12.36;93.05
73624;BME280;61921;53.226;-1.296;2023-05-14T07:01:40;100971.63;;;12.52;92.55
73624;BME280;61921;53.226;-1.296;2023-05-14T07:04:05;100967.59;;;12.43;91.98
73624;BME280;61921;53.226;-1.296;2023-05-14T07:06:31;100969.45;;;12.48;91.65
73624;BME280;61921;53.226;-1.296;2023-05-14T07:08:56;100969.69;;;12.75;91.64
73624;BME280;61921;53.226;-1.296;2023-05-14T07:11:22;100968.73;;;12.78;90.69
73624;BME280;61921;53.226;-1.296;2023-05-14T07:13:47;100964.82;;;12.76;90.35
73624;BME280;61921;53.226;-1.296;2023-05-14T07:16:13;100963.75;;;13.06;90.65
73624;BME280;61921;53.226;-1.296;2023-05-14T07:18:39;100958.30;;;13.31;89.71
73624;BME280;61921;53.226;-1.296;2023-05-14T07:21:05;100958.12;;;13.13;89.07
73624;BME280;61921;53.226;-1.296;2023-05-14T07:23:30;100956.06;;;12.96;90.06
73624;BME280;61921;53.226;-1.296;2023-05-14T07:25:55;100959.40;;;13.19;89.26
73624;BME280;61921;53.226;-1.296;2023-05-14T07:28:21;100964.11;;;13.77;87.38
73624;BME280;61921;53.226;-1.296;2023-05-14T07:30:47;100964.66;;;13.95;86.73
73624;BME280;61921;53.226;-1.296;2023-05-14T07:33:12;100963.71;;;13.99;86.75
73624;BME280;61921;53.226;-1.296;2023-05-14T07:35:38;100962.57;;;14.46;84.20
73624;BME280;61921;53.226;-1.296;2023-05-14T07:38:03;100965.86;;;14.63;82.82
73624;BME280;61921;53.226;-1.296;2023-05-14T07:40:28;100961.76;;;14.64;82.60
73624;BME280;61921;53.226;-1.296;2023-05-14T07:42:54;100959.42;;;15.06;81.34
73624;BME280;61921;53.226;-1.296;2023-05-14T07:45:19;100960.97;;;14.86;81.05
73624;BME280;61921;53.226;-1.296;2023-05-14T07:47:45;100963.44;;;14.97;81.76
73624;BME280;61921;53.226;-1.296;2023-05-14T07:50:11;100960.20;;;14.96;81.65
73624;BME280;61921;53.226;-1.296;2023-05-14T07:52:36;100960.83;;;14.86;81.58
73624;BME280;61921;53.226;-1.296;2023-05-14T07:55:02;100959.61;;;14.96;81.74
73624;BME280;61921;53.226;-1.296;2023-05-14T07:57:28;100952.59;;;15.18;81.68
73624;BME280;61921;53.226;-1.296;2023-05-14T07:59:53;100951.14;;;15.32;81.11
73624;BME280;61921;53.226;-1.296;2023-05-14T08:02:19;100951.60;;;15.56;80.73
73624;BME280;61921;53.226;-1.296;2023-05-14T08:04:45;100948.63;;;15.68;79.11
73624;BME280;61921;53.226;-1.296;2023-05-14T08:07:10;100943.40;;;15.73;78.92
73624;BME280;61921;53.226;-1.296;2023-05-14T08:09:36;100944.06;;;16.01;77.77
73624;BME280;61921;53.226;-1.296;2023-05-14T08:12:00;100940.88;;;16.03;78.17
73624;BME280;61921;53.226;-1.296;2023-05-14T08:14:26;100932.91;;;16.50;76.87
73624;BME280;61921;53.226;-1.296;2023-05-14T08:16:51;100933.21;;;16.73;75.49
73624;BME280;61921;53.226;-1.296;2023-05-14T08:19:17;100927.92;;;16.95;74.44
73624;BME280;61921;53.226;-1.296;2023-05-14T08:21:42;100928.98;;;17.14;74.39
73624;BME280;61921;53.226;-1.296;2023-05-14T08:24:07;100929.57;;;16.96;74.42
73624;BME280;61921;53.226;-1.296;2023-05-14T08:26:33;100925.81;;;17.09;73.71
73624;BME280;61921;53.226;-1.296;2023-05-14T08:28:58;100919.90;;;17.65;73.35
73624;BME280;61921;53.226;-1.296;2023-05-14T08:31:24;100913.44;;;17.77;70.98
73624;BME280;61921;53.226;-1.296;2023-05-14T08:33:49;100910.56;;;17.91;70.98
73624;BME280;61921;53.226;-1.296;2023-05-14T08:36:14;100909.41;;;18.17;70.37
73624;BME280;61921;53.226;-1.296;2023-05-14T08:38:40;100904.92;;;18.38;69.36
73624;BME280;61921;53.226;-1.296;2023-05-14T08:41:06;100901.93;;;18.58;69.10
73624;BME280;61921;53.226;-1.296;2023-05-14T08:43:39;100898.02;;;18.98;67.75
73624;BME280;61921;53.226;-1.296;2023-05-14T08:46:00;100892.85;;;18.79;67.94
73624;BME280;61921;53.226;-1.296;2023-05-14T08:48:25;100892.07;;;19.22;67.29
73624;BME280;61921;53.226;-1.296;2023-05-14T08:50:48;100890.35;;;19.44;65.70
73624;BME280;61921;53.226;-1.296;2023-05-14T08:53:14;100887.57;;;19.53;65.01
73624;BME280;61921;53.226;-1.296;2023-05-14T08:55:39;100882.86;;;19.41;65.50
73624;BME280;61921;53.226;-1.296;2023-05-14T08:58:04;100883.55;;;19.14;66.49
73624;BME280;61921;53.226;-1.296;2023-05-14T09:00:30;100880.57;;;19.20;66.37
73624;BME280;61921;53.226;-1.296;2023-05-14T09:02:56;100880.44;;;19.31;66.48
73624;BME280;61921;53.226;-1.296;2023-05-14T09:05:21;100878.93;;;19.12;66.92
73624;BME280;61921;53.226;-1.296;2023-05-14T09:07:46;100871.98;;;19.51;66.13
73624;BME280;61921;53.226;-1.296;2023-05-14T09:10:12;100869.29;;;19.78;66.00
73624;BME280;61921;53.226;-1.296;2023-05-14T09:12:37;100869.16;;;19.99;66.56
73624;BME280;61921;53.226;-1.296;2023-05-14T09:15:04;100868.28;;;19.72;65.79
73624;BME280;61921;53.226;-1.296;2023-05-14T09:17:28;100866.68;;;19.92;65.33
73624;BME280;61921;53.226;-1.296;2023-05-14T09:19:53;100859.06;;;20.32;65.68
73624;BME280;61921;53.226;-1.296;2023-05-14T09:22:19;100857.30;;;20.34;65.15
73624;BME280;61921;53.226;-1.296;2023-05-14T09:24:45;100857.42;;;20.75;64.86
73624;BME280;61921;53.226;-1.296;2023-05-14T09:27:17;100854.32;;;20.95;63.40
73624;BME280;61921;53.226;-1.296;2023-05-14T09:29:35;100854.85;;;21.05;62.90
73624;BME280;61921;53.226;-1.296;2023-05-14T09:32:01;100852.34;;;21.26;62.46
73624;BME280;61921;53.226;-1.296;2023-05-14T09:34:27;100851.11;;;21.32;62.68
73624;BME280;61921;53.226;-1.296;2023-05-14T09:36:55;100852.98;;;21.42;61.88
73624;BME280;61921;53.226;-1.296;2023-05-14T09:39:18;100858.52;;;21.33;60.37
73624;BME280;61921;53.226;-1.296;2023-05-14T09:41:42;100856.30;;;21.53;61.28
73624;BME280;61921;53.226;-1.296;2023-05-14T09:44:08;100853.39;;;21.44;62.48
73624;BME280;61921;53.226;-1.296;2023-05-14T09:46:33;100850.29;;;21.48;60.33
73624;BME280;61921;53.226;-1.296;2023-05-14T09:48:58;100847.40;;;21.56;61.08
73624;BME280;61921;53.226;-1.296;2023-05-14T09:51:24;100846.31;;;21.45;61.09
73624;BME280;61921;53.226;-1.296;2023-05-14T09:53:51;100848.71;;;21.51;60.98
73624;BME280;61921;53.226;-1.296;2023-05-14T09:56:15;100847.15;;;21.74;61.40
73624;BME280;61921;53.226;-1.296;2023-05-14T09:58:40;100846.12;;;21.70;61.74
73624;BME280;61921;53.226;-1.296;2023-05-14T10:01:05;100845.09;;;21.53;60.91
73624;BME280;61921;53.226;-1.296;2023-05-14T10:03:31;100839.01;;;21.24;61.31
73624;BME280;61921;53.226;-1.296;2023-05-14T10:05:59;100829.15;;;21.32;61.79
73624;BME280;61921;53.226;-1.296;2023-05-14T10:08:25;100823.29;;;21.40;61.64
73624;BME280;61921;53.226;-1.296;2023-05-14T10:10:48;100825.17;;;21.27;60.75
73624;BME280;61921;53.226;-1.296;2023-05-14T10:13:14;100828.10;;;21.27;60.53
73624;BME280;61921;53.226;-1.296;2023-05-14T10:15:46;100831.51;;;21.22;59.57
73624;BME280;61921;53.226;-1.296;2023-05-14T10:18:08;100827.77;;;21.30;60.91
73624;BME280;61921;53.226;-1.296;2023-05-14T10:20:30;100826.92;;;21.12;60.56
73624;BME280;61921;53.226;-1.296;2023-05-14T10:22:55;100824.68;;;21.60;60.26
73624;BME280;61921;53.226;-1.296;2023-05-14T10:25:21;100824.42;;;22.08;60.41
73624;BME280;61921;53.226;-1.296;2023-05-14T10:27:46;100821.06;;;21.69;58.91
73624;BME280;61921;53.226;-1.296;2023-05-14T10:30:12;100820.63;;;22.03;60.40
73624;BME280;61921;53.226;-1.296;2023-05-14T10:32:37;100815.29;;;21.52;58.77
73624;BME280;61921;53.226;-1.296;2023-05-14T10:35:15;100806.19;;;21.76;59.45
73624;BME280;61921;53.226;-1.296;2023-05-14T10:37:29;100807.04;;;21.83;58.69
73624;BME280;61921;53.226;-1.296;2023-05-14T10:39:57;100804.19;;;21.89;59.46
73624;BME280;61921;53.226;-1.296;2023-05-14T10:42:21;100803.70;;;21.47;60.35
73624;BME280;61921;53.226;-1.296;2023-05-14T10:44:49;100803.25;;;21.49;61.09
73624;BME280;61921;53.226;-1.296;2023-05-14T10:47:10;100803.77;;;21.75;60.40
73624;BME280;61921;53.226;-1.296;2023-05-14T10:49:35;100803.41;;;21.57;60.37
73624;BME280;61921;53.226;-1.296;2023-05-14T10:52:01;100798.30;;;21.63;59.70
73624;BME280;61921;53.226;-1.296;2023-05-14T10:54:27;100794.66;;;21.65;58.74
73624;BME280;61921;53.226;-1.296;2023-05-14T10:56:51;100797.11;;;21.67;58.58
73624;BME280;61921;53.226;-1.296;2023-05-14T10:59:16;100798.86;;;21.45;59.37
73624;BME280;61921;53.226;-1.296;2023-05-14T11:01:44;100799.65;;;21.68;60.22
73624;BME280;61921;53.226;-1.296;2023-05-14T11:04:08;100797.88;;;21.54;60.20
73624;BME280;61921;53.226;-1.296;2023-05-14T11:06:35;100799.65;;;21.74;60.10
73624;BME280;61921;53.226;-1.296;2023-05-14T11:09:00;100799.99;;;21.50;59.32
73624;BME280;61921;53.226;-1.296;2023-05-14T11:11:24;100799.77;;;21.32;59.26
73624;BME280;61921;53.226;-1.296;2023-05-14T11:13:50;100797.04;;;21.36;60.16
73624;BME280;61921;53.226;-1.296;2023-05-14T11:16:15;100798.47;;;21.39;59.27
73624;BME280;61921;53.226;-1.296;2023-05-14T11:18:40;100797.43;;;21.40;58.58
73624;BME280;61921;53.226;-1.296;2023-05-14T11:21:06;100792.13;;;21.26;58.68
73624;BME280;61921;53.226;-1.296;2023-05-14T11:23:31;100788.93;;;21.20;59.26
73624;BME280;61921;53.226;-1.296;2023-05-14T11:25:56;100786.18;;;21.03;59.36
73624;BME280;61921;53.226;-1.296;2023-05-14T11:28:24;100785.58;;;20.85;58.99
73624;BME280;61921;53.226;-1.296;2023-05-14T11:30:48;100783.23;;;20.81;58.04
73624;BME280;61921;53.226;-1.296;2023-05-14T11:33:13;100781.66;;;20.92;60.00
73624;BME280;61921;53.226;-1.296;2023-05-14T11:35:39;100775.06;;;21.01;60.99
73624;BME280;61921;53.226;-1.296;2023-05-14T11:38:04;100765.42;;;21.17;59.83
73624;BME280;61921;53.226;-1.296;2023-05-14T11:40:29;100760.34;;;21.07;60.29
73624;BME280;61921;53.226;-1.296;2023-05-14T11:42:55;100756.83;;;21.29;61.00
73624;BME280;61921;53.226;-1.296;2023-05-14T11:45:24;100762.54;;;21.45;60.24
73624;BME280;61921;53.226;-1.296;2023-05-14T11:47:45;100763.13;;;21.45;60.13
73624;BME280;61921;53.226;-1.296;2023-05-14T11:50:10;100753.73;;;21.48;60.94
73624;BME280;61921;53.226;-1.296;2023-05-14T11:52:37;100750.13;;;21.72;61.57
73624;BME280;61921;53.226;-1.296;2023-05-14T11:55:02;100739.84;;;21.99;60.09
73624;BME280;61921;53.226;-1.296;2023-05-14T11:57:30;100739.18;;;22.17;59.52
73624;BME280;61921;53.226;-1.296;2023-05-14T11:59:55;100739.30;;;22.08;59.85
73624;BME280;61921;53.226;-1.296;2023-05-14T12:02:18;100737.82;;;22.22;60.31
73624;BME280;61921;53.226;-1.296;2023-05-14T12:04:49;100731.05;;;22.18;60.01
73624;BME280;61921;53.226;-1.296;2023-05-14T12:07:11;100725.41;;;22.33;60.10
73624;BME280;61921;53.226;-1.296;2023-05-14T12:09:37;100725.04;;;22.59;58.73
73624;BME280;61921;53.226;-1.296;2023-05-14T12:12:07;100728.49;;;22.57;58.00
73624;BME280;61921;53.226;-1.296;2023-05-14T12:14:26;100720.26;;;22.69;58.80
73624;BME280;61921;53.226;-1.296;2023-05-14T12:16:51;100718.97;;;22.95;57.92
73624;BME280;61921;53.226;-1.296;2023-05-14T12:19:18;100719.97;;;22.61;58.59
73624;BME280;61921;53.226;-1.296;2023-05-14T12:21:43;100719.51;;;22.59;58.56
73624;BME280;61921;53.226;-1.296;2023-05-14T12:24:08;100714.41;;;22.52;59.09
73624;BME280;61921;53.226;-1.296;2023-05-14T12:26:33;100713.51;;;22.58;60.97
73624;BME280;61921;53.226;-1.296;2023-05-14T12:29:00;100712.79;;;23.11;60.50
73624;BME280;61921;53.226;-1.296;2023-05-14T12:31:27;100708.54;;;23.39;59.15